sensor_id;sensor_type;location;lat;lon;timestamp;temperature;humidity
78345;DHT22;67620;51.134;6.548;2023-12-22T00:02:06;3.90;99.90
78345;DHT22;67620;51.134;6.548;2023-12-22T00:04:32;3.90;99.90
78345;DHT22;67620;51.134;6.548;2023-12-22T00:06:57;4.00;99.90
78345;DHT22;67620;51.134;6.548;2023-12-22T00:09:23;4.00;99.90
78345;DHT22;67620;51.134;6.548;2023-12-22T00:11:48;4.10;99.90
78345;DHT22;67620;51.134;6.548;2023-12-22T00:14:14;4.20;99.90
78345;DHT22;67620;51.134;6.548;2023-12-22T00:16:39;4.20;99.90
78345;DHT22;67620;51.134;6.548;2023-12-22T00:19:05;4.20;99.90
78345;DHT22;67620;51.134;6.548;2023-12-22T00:21:30;4.20;99.90
78345;DHT22;67620;51.134;6.548;2023-12-22T00:23:57;4.30;99.90
78345;DHT22;67620;51.134;6.548;2023-12-22T00:26:22;4.30;99.90
78345;DHT22;67620;51.134;6.548;2023-12-22T00:28:48;4.40;99.90
78345;DHT22;67620;51.134;6.548;2023-12-22T00:31:14;4.40;99.90
78345;DHT22;67620;51.134;6.548;2023-12-22T00:33:39;4.40;99.90
78345;DHT22;67620;51.134;6.548;2023-12-22T00:36:05;4.50;99.90
78345;DHT22;67620;51.134;6.548;2023-12-22T00:38:30;4.50;99.90
78345;DHT22;67620;51.134;6.548;2023-12-22T00:40:56;4.60;99.90
78345;DHT22;67620;51.134;6.548;2023-12-22T00:43:21;4.60;99.90
78345;DHT22;67620;51.134;6.548;2023-12-22T00:45:47;4.50;99.90
78345;DHT22;67620;51.134;6.548;2023-12-22T00:48:13;4.60;99.90
78345;DHT22;67620;51.134;6.548;2023-12-22T00:50:38;4.60;99.90
78345;DHT22;67620;51.134;6.548;2023-12-22T00:53:04;4.60;99.90
78345;DHT22;67620;51.134;6.548;2023-12-22T00:55:29;4.60;99.90
78345;DHT22;67620;51.134;6.548;2023-12-22T00:57:54;4.70;99.90
78345;DHT22;67620;51.134;6.548;2023-12-22T01:00:20;4.70;99.90
78345;DHT22;67620;51.134;6.548;2023-12-22T01:02:46;4.70;99.90
78345;DHT22;67620;51.134;6.548;2023-12-22T01:05:11;4.60;99.90
78345;DHT22;67620;51.134;6.548;2023-12-22T01:07:37;4.60;99.90
78345;DHT22;67620;51.134;6.548;2023-12-22T01:10:02;4.50;99.90
78345;DHT22;67620;51.134;6.548;2023-12-22T01:12:29;4.40;99.90
78345;DHT22;67620;51.134;6.548;2023-12-22T01:14:56;4.40;99.90
78345;DHT22;67620;51.134;6.548;2023-12-22T01:17:21;4.60;99.90
78345;DHT22;67620;51.134;6.548;2023-12-22T01:19:47;4.60;99.90
78345;DHT22;67620;51.134;6.548;2023-12-22T01:22:13;4.70;99.90
78345;DHT22;67620;51.134;6.548;2023-12-22T01:24:38;4.70;99.90
78345;DHT22;67620;51.134;6.548;2023-12-22T01:27:06;4.70;99.90
78345;DHT22;67620;51.134;6.548;2023-12-22T01:29:32;4.70;99.90
78345;DHT22;67620;51.134;6.548;2023-12-22T01:31:57;4.70;99.90
78345;DHT22;67620;51.134;6.548;2023-12-22T01:34:23;4.60;99.90
78345;DHT22;67620;51.134;6.548;2023-12-22T01:36:48;4.50;99.90
78345;DHT22;67620;51.134;6.548;2023-12-22T01:39:15;4.50;99.90
78345;DHT22;67620;51.134;6.548;2023-12-22T01:41:41;4.40;99.90
78345;DHT22;67620;51.134;6.548;2023-12-22T01:44:06;4.40;99.90
78345;DHT22;67620;51.134;6.548;2023-12-22T01:46:32;4.40;99.90
78345;DHT22;67620;51.134;6.548;2023-12-22T01:49:00;4.30;99.90
78345;DHT22;67620;51.134;6.548;2023-12-22T01:51:28;4.10;99.90
78345;DHT22;67620;51.134;6.548;2023-12-22T01:53:54;4.10;99.90
78345;DHT22;67620;51.134;6.548;2023-12-22T01:56:19;4.00;99.90
78345;DHT22;67620;51.134;6.548;2023-12-22T01:58:45;3.90;99.90
78345;DHT22;67620;51.134;6.548;2023-12-22T02:01:11;3.80;99.90
78345;DHT22;67620;51.134;6.548;2023-12-22T02:03:37;3.80;99.90
78345;DHT22;67620;51.134;6.548;2023-12-22T02:06:04;3.70;99.90
78345;DHT22;67620;51.134;6.548;2023-12-22T02:08:31;3.60;99.90
78345;DHT22;67620;51.134;6.548;2023-12-22T02:10:57;3.60;99.90
78345;DHT22;67620;51.134;6.548;2023-12-22T02:13:23;3.80;99.90
78345;DHT22;67620;51.134;6.548;2023-12-22T02:15:50;3.90;99.90
78345;DHT22;67620;51.134;6.548;2023-12-22T02:18:25;4.10;99.90
78345;DHT22;67620;51.134;6.548;2023-12-22T02:20:52;4.30;99.90
78345;DHT22;67620;51.134;6.548;2023-12-22T02:23:18;4.40;99.90
78345;DHT22;67620;51.134;6.548;2023-12-22T02:25:44;4.50;99.90
78345;DHT22;67620;51.134;6.548;2023-12-22T02:28:12;4.50;99.90
78345;DHT22;67620;51.134;6.548;2023-12-22T02:30:52;4.50;99.90
78345;DHT22;67620;51.134;6.548;2023-12-22T02:33:18;4.30;99.90
78345;DHT22;67620;51.134;6.548;2023-12-22T02:35:47;4.10;99.90
78345;DHT22;67620;51.134;6.548;2023-12-22T02:38:15;4.00;99.90
78345;DHT22;67620;51.134;6.548;2023-12-22T02:40:41;4.00;99.90
78345;DHT22;67620;51.134;6.548;2023-12-22T02:43:08;3.90;99.90
78345;DHT22;67620;51.134;6.548;2023-12-22T02:45:34;3.90;99.90
78345;DHT22;67620;51.134;6.548;2023-12-22T02:48:00;3.80;99.90
78345;DHT22;67620;51.134;6.548;2023-12-22T02:50:25;3.80;99.90
78345;DHT22;67620;51.134;6.548;2023-12-22T02:52:51;3.70;99.90
78345;DHT22;67620;51.134;6.548;2023-12-22T02:55:16;3.60;99.90
78345;DHT22;67620;51.134;6.548;2023-12-22T02:57:42;3.60;99.90
78345;DHT22;67620;51.134;6.548;2023-12-22T03:00:08;3.60;99.90
78345;DHT22;67620;51.134;6.548;2023-12-22T03:02:33;3.60;99.90
78345;DHT22;67620;51.134;6.548;2023-12-22T03:04:59;3.50;99.90
78345;DHT22;67620;51.134;6.548;2023-12-22T03:07:24;3.60;99.90
78345;DHT22;67620;51.134;6.548;2023-12-22T03:09:50;3.60;99.90
78345;DHT22;67620;51.134;6.548;2023-12-22T03:12:15;3.70;99.90
78345;DHT22;67620;51.134;6.548;2023-12-22T03:14:41;3.80;99.90
78345;DHT22;67620;51.134;6.548;2023-12-22T03:17:06;4.00;99.90
78345;DHT22;67620;51.134;6.548;2023-12-22T03:19:32;4.00;99.90
78345;DHT22;67620;51.134;6.548;2023-12-22T03:21:59;4.20;99.90
78345;DHT22;67620;51.134;6.548;2023-12-22T03:24:25;4.30;99.90
78345;DHT22;67620;51.134;6.548;2023-12-22T03:26:52;4.40;99.90
78345;DHT22;67620;51.134;6.548;2023-12-22T03:29:17;4.50;99.90
78345;DHT22;67620;51.134;6.548;2023-12-22T03:31:44;4.50;99.90
78345;DHT22;67620;51.134;6.548;2023-12-22T03:34:09;4.50;99.90
78345;DHT22;67620;51.134;6.548;2023-12-22T03:36:35;4.50;99.90
78345;DHT22;67620;51.134;6.548;2023-12-22T03:39:01;4.50;99.90
78345;DHT22;67620;51.134;6.548;2023-12-22T03:41:26;4.60;99.90
78345;DHT22;67620;51.134;6.548;2023-12-22T03:43:52;4.70;99.90
78345;DHT22;67620;51.134;6.548;2023-12-22T03:46:17;4.70;99.90
78345;DHT22;67620;51.134;6.548;2023-12-22T03:48:44;4.70;99.90
78345;DHT22;67620;51.134;6.548;2023-12-22T03:51:09;4.70;99.90
78345;DHT22;67620;51.134;6.548;2023-12-22T03:53:37;4.70;99.90
78345;DHT22;67620;51.134;6.548;2023-12-22T03:56:03;4.70;99.90
78345;DHT22;67620;51.134;6.548;2023-12-22T03:58:28;4.60;99.90
78345;DHT22;67620;51.134;6.548;2023-12-22T04:00:55;4.60;99.90
78345;DHT22;67620;51.134;6.548;2023-12-22T04:03:20;4.40;99.90
78345;DHT22;67620;51.134;6.548;2023-12-22T04:05:46;4.40;99.90
78345;DHT22;67620;51.134;6.548;2023-12-22T04:08:11;4.40;99.90
78345;DHT22;67620;51.134;6.548;2023-12-22T04:10:37;4.50;99.90
78345;DHT22;67620;51.134;6.548;2023-12-22T04:13:02;4.50;99.90
78345;DHT22;67620;51.134;6.548;2023-12-22T04:15:28;4.60;99.90
78345;DHT22;67620;51.134;6.548;2023-12-22T04:17:53;4.50;99.90
78345;DHT22;67620;51.134;6.548;2023-12-22T04:20:19;4.40;99.90
78345;DHT22;67620;51.134;6.548;2023-12-22T04:22:44;4.30;99.90
78345;DHT22;67620;51.134;6.548;2023-12-22T04:25:10;4.30;99.90
78345;DHT22;67620;51.134;6.548;2023-12-22T04:27:35;4.30;99.90
78345;DHT22;67620;51.134;6.548;2023-12-22T04:30:01;4.50;99.90
78345;DHT22;67620;51.134;6.548;2023-12-22T04:32:27;4.70;99.90
78345;DHT22;67620;51.134;6.548;2023-12-22T04:34:52;4.70;99.90
78345;DHT22;67620;51.134;6.548;2023-12-22T04:37:18;4.70;99.90
78345;DHT22;67620;51.134;6.548;2023-12-22T04:39:43;4.80;99.90
78345;DHT22;67620;51.134;6.548;2023-12-22T04:42:09;4.80;99.90
78345;DHT22;67620;51.134;6.548;2023-12-22T04:44:34;4.80;99.90
78345;DHT22;67620;51.134;6.548;2023-12-22T04:47:01;4.90;99.90
78345;DHT22;67620;51.134;6.548;2023-12-22T04:49:26;4.90;99.90
78345;DHT22;67620;51.134;6.548;2023-12-22T04:51:52;5.00;99.90
78345;DHT22;67620;51.134;6.548;2023-12-22T04:54:17;5.10;99.90
78345;DHT22;67620;51.134;6.548;2023-12-22T04:56:43;5.10;99.90
78345;DHT22;67620;51.134;6.548;2023-12-22T04:59:08;5.10;99.90
78345;DHT22;67620;51.134;6.548;2023-12-22T05:01:34;5.10;99.90
78345;DHT22;67620;51.134;6.548;2023-12-22T05:04:00;5.10;99.90
78345;DHT22;67620;51.134;6.548;2023-12-22T05:06:25;5.20;99.90
78345;DHT22;67620;51.134;6.548;2023-12-22T05:08:51;5.20;99.90
78345;DHT22;67620;51.134;6.548;2023-12-22T05:11:16;5.20;99.90
78345;DHT22;67620;51.134;6.548;2023-12-22T05:13:42;5.20;99.90
78345;DHT22;67620;51.134;6.548;2023-12-22T05:16:08;5.40;99.90
78345;DHT22;67620;51.134;6.548;2023-12-22T05:18:34;5.40;99.90
78345;DHT22;67620;51.134;6.548;2023-12-22T05:20:59;5.40;99.90
78345;DHT22;67620;51.134;6.548;2023-12-22T05:23:25;5.40;99.90
78345;DHT22;67620;51.134;6.548;2023-12-22T05:25:50;5.40;99.90
78345;DHT22;67620;51.134;6.548;2023-12-22T05:28:16;5.60;99.90
78345;DHT22;67620;51.134;6.548;2023-12-22T05:30:42;5.60;99.90
78345;DHT22;67620;51.134;6.548;2023-12-22T05:33:07;5.60;99.90
78345;DHT22;67620;51.134;6.548;2023-12-22T05:35:33;5.60;99.90
78345;DHT22;67620;51.134;6.548;2023-12-22T05:37:58;5.60;99.90
78345;DHT22;67620;51.134;6.548;2023-12-22T05:40:24;5.50;99.90
78345;DHT22;67620;51.134;6.548;2023-12-22T05:42:49;5.50;99.90
78345;DHT22;67620;51.134;6.548;2023-12-22T05:45:15;5.60;99.90
78345;DHT22;67620;51.134;6.548;2023-12-22T05:47:40;5.60;99.90
78345;DHT22;67620;51.134;6.548;2023-12-22T05:50:07;5.60;99.90
78345;DHT22;67620;51.134;6.548;2023-12-22T05:52:33;5.60;99.90
78345;DHT22;67620;51.134;6.548;2023-12-22T05:54:58;5.60;99.90
78345;DHT22;67620;51.134;6.548;2023-12-22T05:57:27;5.60;99.90
78345;DHT22;67620;51.134;6.548;2023-12-22T05:59:53;5.60;99.90
78345;DHT22;67620;51.134;6.548;2023-12-22T06:02:18;5.60;99.90
78345;DHT22;67620;51.134;6.548;2023-12-22T06:04:43;5.70;99.90
78345;DHT22;67620;51.134;6.548;2023-12-22T06:07:10;5.70;99.90
78345;DHT22;67620;51.134;6.548;2023-12-22T06:09:36;5.70;99.90
78345;DHT22;67620;51.134;6.548;2023-12-22T06:12:01;5.70;99.90
78345;DHT22;67620;51.134;6.548;2023-12-22T06:14:27;5.70;99.90
78345;DHT22;67620;51.134;6.548;2023-12-22T06:16:52;5.70;99.90
78345;DHT22;67620;51.134;6.548;2023-12-22T06:19:19;5.70;99.90
78345;DHT22;67620;51.134;6.548;2023-12-22T06:21:44;5.70;99.90
78345;DHT22;67620;51.134;6.548;2023-12-22T06:24:10;5.70;99.90
78345;DHT22;67620;51.134;6.548;2023-12-22T06:26:35;5.80;99.90
78345;DHT22;67620;51.134;6.548;2023-12-22T06:29:01;5.80;99.90
78345;DHT22;67620;51.134;6.548;2023-12-22T06:31:28;5.80;99.90
78345;DHT22;67620;51.134;6.548;2023-12-22T06:33:54;5.90;99.90
78345;DHT22;67620;51.134;6.548;2023-12-22T06:36:23;5.80;99.90
78345;DHT22;67620;51.134;6.548;2023-12-22T06:38:50;5.80;99.90
78345;DHT22;67620;51.134;6.548;2023-12-22T06:41:22;5.80;99.90
78345;DHT22;67620;51.134;6.548;2023-12-22T06:43:48;5.70;99.90
78345;DHT22;67620;51.134;6.548;2023-12-22T06:46:15;5.60;99.90
78345;DHT22;67620;51.134;6.548;2023-12-22T06:48:41;5.60;99.90
78345;DHT22;67620;51.134;6.548;2023-12-22T06:51:07;5.60;99.90
78345;DHT22;67620;51.134;6.548;2023-12-22T06:53:32;5.60;99.90
78345;DHT22;67620;51.134;6.548;2023-12-22T06:55:58;5.60;99.90
78345;DHT22;67620;51.134;6.548;2023-12-22T06:58:23;5.60;99.90
78345;DHT22;67620;51.134;6.548;2023-12-22T07:00:51;5.60;99.90
78345;DHT22;67620;51.134;6.548;2023-12-22T07:03:16;5.60;99.90
78345;DHT22;67620;51.134;6.548;2023-12-22T07:05:43;5.70;99.90
78345;DHT22;67620;51.134;6.548;2023-12-22T07:08:08;5.80;99.90
78345;DHT22;67620;51.134;6.548;2023-12-22T07:10:34;5.70;99.90
78345;DHT22;67620;51.134;6.548;2023-12-22T07:12:59;5.60;99.90
78345;DHT22;67620;51.134;6.548;2023-12-22T07:15:25;5.50;99.90
78345;DHT22;67620;51.134;6.548;2023-12-22T07:17:50;5.40;99.90
78345;DHT22;67620;51.134;6.548;2023-12-22T07:20:16;5.40;99.90
78345;DHT22;67620;51.134;6.548;2023-12-22T07:22:44;5.50;99.90
78345;DHT22;67620;51.134;6.548;2023-12-22T07:25:10;5.50;99.90
78345;DHT22;67620;51.134;6.548;2023-12-22T07:27:36;5.50;99.90
78345;DHT22;67620;51.134;6.548;2023-12-22T07:30:02;5.50;99.90
78345;DHT22;67620;51.134;6.548;2023-12-22T07:32:27;5.50;99.90
78345;DHT22;67620;51.134;6.548;2023-12-22T07:34:53;5.50;99.90
78345;DHT22;67620;51.134;6.548;2023-12-22T07:37:18;5.50;99.90
78345;DHT22;67620;51.134;6.548;2023-12-22T07:39:44;5.50;99.90
78345;DHT22;67620;51.134;6.548;2023-12-22T07:42:10;5.60;99.90
78345;DHT22;67620;51.134;6.548;2023-12-22T07:44:35;5.80;99.90
78345;DHT22;67620;51.134;6.548;2023-12-22T07:47:02;6.00;99.90
78345;DHT22;67620;51.134;6.548;2023-12-22T07:49:27;6.10;99.90
78345;DHT22;67620;51.134;6.548;2023-12-22T07:51:53;6.10;99.90
78345;DHT22;67620;51.134;6.548;2023-12-22T07:54:19;6.10;99.90
78345;DHT22;67620;51.134;6.548;2023-12-22T07:56:44;6.10;99.90
78345;DHT22;67620;51.134;6.548;2023-12-22T07:59:10;6.10;99.90
78345;DHT22;67620;51.134;6.548;2023-12-22T08:01:35;6.10;99.90
78345;DHT22;67620;51.134;6.548;2023-12-22T08:04:01;6.10;99.90
78345;DHT22;67620;51.134;6.548;2023-12-22T08:06:26;6.10;99.90
78345;DHT22;67620;51.134;6.548;2023-12-22T08:08:52;6.20;99.90
78345;DHT22;67620;51.134;6.548;2023-12-22T08:11:18;6.20;99.90
78345;DHT22;67620;51.134;6.548;2023-12-22T08:13:45;6.20;99.90
78345;DHT22;67620;51.134;6.548;2023-12-22T08:16:10;6.30;99.90
78345;DHT22;67620;51.134;6.548;2023-12-22T08:18:35;6.30;99.90
78345;DHT22;67620;51.134;6.548;2023-12-22T08:21:01;6.20;99.90
78345;DHT22;67620;51.134;6.548;2023-12-22T08:23:26;6.30;99.90
78345;DHT22;67620;51.134;6.548;2023-12-22T08:25:52;6.30;99.90
78345;DHT22;67620;51.134;6.548;2023-12-22T08:28:17;6.30;99.90
78345;DHT22;67620;51.134;6.548;2023-12-22T08:30:43;6.40;99.90
78345;DHT22;67620;51.134;6.548;2023-12-22T08:33:09;6.40;99.90
78345;DHT22;67620;51.134;6.548;2023-12-22T08:35:34;6.40;99.90
78345;DHT22;67620;51.134;6.548;2023-12-22T08:38:00;6.50;99.90
78345;DHT22;67620;51.134;6.548;2023-12-22T08:40:25;6.50;99.90
78345;DHT22;67620;51.134;6.548;2023-12-22T08:42:52;6.50;99.90
78345;DHT22;67620;51.134;6.548;2023-12-22T08:45:28;6.60;99.90
78345;DHT22;67620;51.134;6.548;2023-12-22T08:47:55;6.60;99.90
78345;DHT22;67620;51.134;6.548;2023-12-22T08:50:21;6.70;99.90
78345;DHT22;67620;51.134;6.548;2023-12-22T08:52:46;6.70;99.90
78345;DHT22;67620;51.134;6.548;2023-12-22T08:55:12;6.80;99.90
78345;DHT22;67620;51.134;6.548;2023-12-22T08:57:37;6.80;99.90
78345;DHT22;67620;51.134;6.548;2023-12-22T09:00:03;6.90;99.90
78345;DHT22;67620;51.134;6.548;2023-12-22T09:02:29;6.90;99.90
78345;DHT22;67620;51.134;6.548;2023-12-22T09:04:54;6.90;99.90
78345;DHT22;67620;51.134;6.548;2023-12-22T09:07:20;6.90;99.90
78345;DHT22;67620;51.134;6.548;2023-12-22T09:09:47;6.90;99.90
78345;DHT22;67620;51.134;6.548;2023-12-22T09:12:13;6.90;99.90
78345;DHT22;67620;51.134;6.548;2023-12-22T09:14:38;6.90;99.90
78345;DHT22;67620;51.134;6.548;2023-12-22T09:17:04;7.00;99.90
78345;DHT22;67620;51.134;6.548;2023-12-22T09:19:32;7.00;99.90
78345;DHT22;67620;51.134;6.548;2023-12-22T09:21:58;7.00;99.90
78345;DHT22;67620;51.134;6.548;2023-12-22T09:24:24;7.10;99.90
78345;DHT22;67620;51.134;6.548;2023-12-22T09:26:49;7.10;99.90
78345;DHT22;67620;51.134;6.548;2023-12-22T09:29:16;7.10;99.90
78345;DHT22;67620;51.134;6.548;2023-12-22T09:31:42;7.10;99.90
78345;DHT22;67620;51.134;6.548;2023-12-22T09:34:07;7.20;99.90
78345;DHT22;67620;51.134;6.548;2023-12-22T09:36:33;7.20;99.90
78345;DHT22;67620;51.134;6.548;2023-12-22T09:38:58;7.20;99.90
78345;DHT22;67620;51.134;6.548;2023-12-22T09:41:24;7.30;99.90
78345;DHT22;67620;51.134;6.548;2023-12-22T09:43:50;7.30;99.90
78345;DHT22;67620;51.134;6.548;2023-12-22T09:46:20;7.30;99.90
78345;DHT22;67620;51.134;6.548;2023-12-22T09:48:47;7.40;99.90
78345;DHT22;67620;51.134;6.548;2023-12-22T09:51:14;7.30;99.90
78345;DHT22;67620;51.134;6.548;2023-12-22T09:53:42;7.30;99.90
78345;DHT22;67620;51.134;6.548;2023-12-22T09:56:08;7.40;99.90
78345;DHT22;67620;51.134;6.548;2023-12-22T09:58:35;7.40;99.90
78345;DHT22;67620;51.134;6.548;2023-12-22T10:01:02;7.30;99.90
78345;DHT22;67620;51.134;6.548;2023-12-22T10:03:32;7.30;99.90
78345;DHT22;67620;51.134;6.548;2023-12-22T10:05:58;7.30;99.90
78345;DHT22;67620;51.134;6.548;2023-12-22T10:08:26;7.40;99.90
78345;DHT22;67620;51.134;6.548;2023-12-22T10:10:52;7.40;99.90
78345;DHT22;67620;51.134;6.548;2023-12-22T10:13:18;7.40;99.90
78345;DHT22;67620;51.134;6.548;2023-12-22T10:15:44;7.50;99.90
78345;DHT22;67620;51.134;6.548;2023-12-22T10:18:11;7.50;99.90
78345;DHT22;67620;51.134;6.548;2023-12-22T10:20:36;7.50;99.90
78345;DHT22;67620;51.134;6.548;2023-12-22T10:23:02;7.60;99.90
78345;DHT22;67620;51.134;6.548;2023-12-22T10:25:28;7.70;99.90
78345;DHT22;67620;51.134;6.548;2023-12-22T10:28:00;7.70;99.90
78345;DHT22;67620;51.134;6.548;2023-12-22T10:30:27;7.70;99.90
78345;DHT22;67620;51.134;6.548;2023-12-22T10:32:53;7.70;99.90
78345;DHT22;67620;51.134;6.548;2023-12-22T10:35:22;7.70;99.90
78345;DHT22;67620;51.134;6.548;2023-12-22T10:37:48;7.70;99.90
78345;DHT22;67620;51.134;6.548;2023-12-22T10:40:17;7.70;99.90
78345;DHT22;67620;51.134;6.548;2023-12-22T10:42:43;7.70;99.90
78345;DHT22;67620;51.134;6.548;2023-12-22T10:45:09;7.60;99.90
78345;DHT22;67620;51.134;6.548;2023-12-22T10:47:34;7.70;99.90
78345;DHT22;67620;51.134;6.548;2023-12-22T10:50:03;7.70;99.90
78345;DHT22;67620;51.134;6.548;2023-12-22T10:52:31;7.80;99.90
78345;DHT22;67620;51.134;6.548;2023-12-22T10:54:58;7.70;99.90
78345;DHT22;67620;51.134;6.548;2023-12-22T10:57:23;7.80;99.90
78345;DHT22;67620;51.134;6.548;2023-12-22T10:59:51;7.80;99.90
78345;DHT22;67620;51.134;6.548;2023-12-22T11:02:18;7.90;99.90
78345;DHT22;67620;51.134;6.548;2023-12-22T11:04:57;7.90;99.90
78345;DHT22;67620;51.134;6.548;2023-12-22T11:07:25;7.90;99.90
78345;DHT22;67620;51.134;6.548;2023-12-22T11:09:56;8.00;99.90
78345;DHT22;67620;51.134;6.548;2023-12-22T11:12:21;8.00;99.90
78345;DHT22;67620;51.134;6.548;2023-12-22T11:14:48;8.00;99.90
78345;DHT22;67620;51.134;6.548;2023-12-22T11:17:19;8.00;99.90
78345;DHT22;67620;51.134;6.548;2023-12-22T11:19:50;8.10;99.90
78345;DHT22;67620;51.134;6.548;2023-12-22T11:22:18;8.10;99.90
78345;DHT22;67620;51.134;6.548;2023-12-22T11:24:46;8.10;99.90
78345;DHT22;67620;51.134;6.548;2023-12-22T11:27:12;8.10;99.90
78345;DHT22;67620;51.134;6.548;2023-12-22T11:29:40;8.20;99.90
78345;DHT22;67620;51.134;6.548;2023-12-22T11:32:07;8.20;99.90
78345;DHT22;67620;51.134;6.548;2023-12-22T11:34:33;8.20;99.90
78345;DHT22;67620;51.134;6.548;2023-12-22T11:37:03;8.20;99.90
78345;DHT22;67620;51.134;6.548;2023-12-22T11:39:28;8.20;99.90
78345;DHT22;67620;51.134;6.548;2023-12-22T11:41:55;8.20;99.90
78345;DHT22;67620;51.134;6.548;2023-12-22T11:44:21;8.20;99.90
78345;DHT22;67620;51.134;6.548;2023-12-22T11:46:47;8.30;99.90
78345;DHT22;67620;51.134;6.548;2023-12-22T11:49:12;8.30;99.90
78345;DHT22;67620;51.134;6.548;2023-12-22T11:51:38;8.40;99.90
78345;DHT22;67620;51.134;6.548;2023-12-22T11:54:18;8.40;99.90
78345;DHT22;67620;51.134;6.548;2023-12-22T11:56:50;8.50;99.90
78345;DHT22;67620;51.134;6.548;2023-12-22T11:59:16;8.50;99.90
78345;DHT22;67620;51.134;6.548;2023-12-22T12:01:42;8.50;99.90
78345;DHT22;67620;51.134;6.548;2023-12-22T12:04:07;8.50;99.90
78345;DHT22;67620;51.134;6.548;2023-12-22T12:06:34;8.50;99.90
78345;DHT22;67620;51.134;6.548;2023-12-22T12:09:05;8.50;99.90
78345;DHT22;67620;51.134;6.548;2023-12-22T12:14:40;8.60;99.90
78345;DHT22;67620;51.134;6.548;2023-12-22T12:17:07;8.70;99.90
78345;DHT22;67620;51.134;6.548;2023-12-22T12:19:39;8.70;99.90
78345;DHT22;67620;51.134;6.548;2023-12-22T12:22:07;8.80;99.90
78345;DHT22;67620;51.134;6.548;2023-12-22T12:24:33;8.80;99.90
78345;DHT22;67620;51.134;6.548;2023-12-22T12:26:58;8.80;99.90
78345;DHT22;67620;51.134;6.548;2023-12-22T12:29:24;8.80;99.90
78345;DHT22;67620;51.134;6.548;2023-12-22T12:31:50;8.80;99.90
78345;DHT22;67620;51.134;6.548;2023-12-22T12:34:16;8.80;99.90
78345;DHT22;67620;51.134;6.548;2023-12-22T12:36:46;8.80;99.90
78345;DHT22;67620;51.134;6.548;2023-12-22T12:39:15;8.80;99.90
78345;DHT22;67620;51.134;6.548;2023-12-22T12:41:42;8.80;99.90
78345;DHT22;67620;51.134;6.548;2023-12-22T12:44:11;8.80;99.90
78345;DHT22;67620;51.134;6.548;2023-12-22T12:46:38;8.90;99.90
78345;DHT22;67620;51.134;6.548;2023-12-22T12:49:08;8.90;99.90
78345;DHT22;67620;51.134;6.548;2023-12-22T12:51:46;8.90;99.90
78345;DHT22;67620;51.134;6.548;2023-12-22T12:54:13;8.90;99.90
78345;DHT22;67620;51.134;6.548;2023-12-22T12:56:42;9.00;99.90
78345;DHT22;67620;51.134;6.548;2023-12-22T12:59:09;9.00;99.90
78345;DHT22;67620;51.134;6.548;2023-12-22T13:01:42;8.90;99.90
78345;DHT22;67620;51.134;6.548;2023-12-22T13:04:08;8.90;99.90
78345;DHT22;67620;51.134;6.548;2023-12-22T13:06:33;8.80;99.90
78345;DHT22;67620;51.134;6.548;2023-12-22T13:08:59;8.80;99.90
78345;DHT22;67620;51.134;6.548;2023-12-22T13:11:31;8.80;99.90
78345;DHT22;67620;51.134;6.548;2023-12-22T13:13:57;8.90;99.90
78345;DHT22;67620;51.134;6.548;2023-12-22T13:16:24;8.80;99.90
78345;DHT22;67620;51.134;6.548;2023-12-22T13:18:56;8.80;99.90
78345;DHT22;67620;51.134;6.548;2023-12-22T13:21:23;8.80;99.90
78345;DHT22;67620;51.134;6.548;2023-12-22T13:26:33;8.80;99.90
78345;DHT22;67620;51.134;6.548;2023-12-22T13:28:58;8.80;99.90
78345;DHT22;67620;51.134;6.548;2023-12-22T13:31:26;8.70;99.90
78345;DHT22;67620;51.134;6.548;2023-12-22T13:33:52;8.80;99.90
78345;DHT22;67620;51.134;6.548;2023-12-22T13:36:17;8.80;99.90
78345;DHT22;67620;51.134;6.548;2023-12-22T13:38:47;8.80;99.90
78345;DHT22;67620;51.134;6.548;2023-12-22T13:41:12;8.80;99.90
78345;DHT22;67620;51.134;6.548;2023-12-22T13:43:38;8.70;99.90
78345;DHT22;67620;51.134;6.548;2023-12-22T13:46:04;8.70;99.90
78345;DHT22;67620;51.134;6.548;2023-12-22T13:48:30;8.70;99.90
78345;DHT22;67620;51.134;6.548;2023-12-22T13:50:59;8.70;99.90
78345;DHT22;67620;51.134;6.548;2023-12-22T13:53:25;8.70;99.90
78345;DHT22;67620;51.134;6.548;2023-12-22T13:55:58;8.60;99.90
78345;DHT22;67620;51.134;6.548;2023-12-22T13:58:24;8.60;99.90
78345;DHT22;67620;51.134;6.548;2023-12-22T14:00:51;8.60;99.90
78345;DHT22;67620;51.134;6.548;2023-12-22T14:03:18;8.60;99.90
78345;DHT22;67620;51.134;6.548;2023-12-22T14:05:47;8.50;99.90
78345;DHT22;67620;51.134;6.548;2023-12-22T14:08:13;8.50;99.90
78345;DHT22;67620;51.134;6.548;2023-12-22T14:10:45;8.50;99.90
78345;DHT22;67620;51.134;6.548;2023-12-22T14:13:11;8.40;99.90
78345;DHT22;67620;51.134;6.548;2023-12-22T14:15:36;8.40;99.90
78345;DHT22;67620;51.134;6.548;2023-12-22T14:18:02;8.40;99.90
78345;DHT22;67620;51.134;6.548;2023-12-22T14:20:28;8.40;99.90
78345;DHT22;67620;51.134;6.548;2023-12-22T14:22:54;8.40;99.90
78345;DHT22;67620;51.134;6.548;2023-12-22T14:25:19;8.40;99.90
78345;DHT22;67620;51.134;6.548;2023-12-22T14:27:45;8.40;99.90
78345;DHT22;67620;51.134;6.548;2023-12-22T14:30:11;8.40;99.90
78345;DHT22;67620;51.134;6.548;2023-12-22T14:32:37;8.40;99.90
78345;DHT22;67620;51.134;6.548;2023-12-22T14:35:03;8.30;99.90
78345;DHT22;67620;51.134;6.548;2023-12-22T14:37:29;8.30;99.90
78345;DHT22;67620;51.134;6.548;2023-12-22T14:39:54;8.30;99.90
78345;DHT22;67620;51.134;6.548;2023-12-22T14:42:20;8.30;99.90
78345;DHT22;67620;51.134;6.548;2023-12-22T14:44:45;8.30;99.90
78345;DHT22;67620;51.134;6.548;2023-12-22T14:47:11;8.40;99.90
78345;DHT22;67620;51.134;6.548;2023-12-22T14:49:36;8.30;99.90
78345;DHT22;67620;51.134;6.548;2023-12-22T14:52:02;8.30;99.90
78345;DHT22;67620;51.134;6.548;2023-12-22T14:54:27;8.30;99.90
78345;DHT22;67620;51.134;6.548;2023-12-22T14:56:53;8.30;99.90
78345;DHT22;67620;51.134;6.548;2023-12-22T14:59:18;8.30;99.90
78345;DHT22;67620;51.134;6.548;2023-12-22T15:01:44;8.20;99.90
78345;DHT22;67620;51.134;6.548;2023-12-22T15:04:13;8.20;99.90
78345;DHT22;67620;51.134;6.548;2023-12-22T15:06:39;8.20;99.90
78345;DHT22;67620;51.134;6.548;2023-12-22T15:09:06;8.20;99.90
78345;DHT22;67620;51.134;6.548;2023-12-22T15:11:31;8.20;99.90
78345;DHT22;67620;51.134;6.548;2023-12-22T15:13:57;8.20;99.90
78345;DHT22;67620;51.134;6.548;2023-12-22T15:16:22;8.20;99.90
78345;DHT22;67620;51.134;6.548;2023-12-22T15:18:48;8.20;99.90
78345;DHT22;67620;51.134;6.548;2023-12-22T15:21:20;8.20;99.90
78345;DHT22;67620;51.134;6.548;2023-12-22T15:23:50;8.20;99.90
78345;DHT22;67620;51.134;6.548;2023-12-22T15:26:23;8.20;99.90
78345;DHT22;67620;51.134;6.548;2023-12-22T15:28:49;8.20;99.90
78345;DHT22;67620;51.134;6.548;2023-12-22T15:31:14;8.20;99.90
78345;DHT22;67620;51.134;6.548;2023-12-22T15:33:40;8.20;99.90
78345;DHT22;67620;51.134;6.548;2023-12-22T15:36:05;8.20;99.90
78345;DHT22;67620;51.134;6.548;2023-12-22T15:38:31;8.20;99.90
78345;DHT22;67620;51.134;6.548;2023-12-22T15:41:00;8.20;99.90
78345;DHT22;67620;51.134;6.548;2023-12-22T15:43:26;8.20;99.90
78345;DHT22;67620;51.134;6.548;2023-12-22T15:45:51;8.20;99.90